Terminal Aerodrome Forecast
Issued by NWS

Home | Current Version | Previous Version | Text Only | Print | Product List | Glossary On
Versions: 1 2 3 4 5 6 7 8 9 10 11 12 13 14 15 16 17 18 19 20
000
FTUS44 KLIX 172339
TAFMCB
TAF
KMCB 172339Z 1800/1824 17005KT P6SM FEW020 FEW250
     FM180800 19006KT 4SM BR FEW008 SCT250
     FM181000 19006KT 4SM BR SCT003 BKN015
     FM181400 20012KT P6SM SCT008 BKN020 PROB30 1818/1821 4SM -SHRA
      BKN015 BKN020
     FM182100 23015G27KT P6SM SCT020 BKN030 PROB30 1821/1823 4SM
      -SHRA BKN015 BKN020
     FM182300 26010KT P6SM SCT015 BKN025 PROB30 1823/1824 4SM -SHRA
      BKN015=

USA.gov is the U.S. government's official web portal to all federal, state and local government web resources and services.